Hermitage, Arkansas
Current Conditions -  °F | °C
As of 6:53 PM on Wednesday 22 Oct 2014 (Local Time) from KLLQ Reporting Station
Clear Clear  
Wind Chill: 61°   Ceiling: Unl
Heat Index: 61°   Visibility: 10mi
Dew Point: 50°   Wind: 3mph
Humidity: 67%   Direction: 30°NNE
Pressure: 30.13"   Gusts: NA
Location:  33.45°N, 92.17°W
Report Text: KLLQ 222353Z AUTO 03003KT 10SM CLR 16/10 A3013 RMK AO2 SLP202 T01610100 10233 20161 56004
Loading
Personal Weather Stations






























Interactive Weather Map
Tropical Storm Tracking
New forecast layout! Learn more

10-Day Weather Forecast

Advertisements
Track Severe Weather on mobile